Time;durP1;ratioP1;P1;durP2;ratioP2;P2;SDS_P1;SDS_P2;PMS_P1;PMS_P2;Temp;Humidity;BMP_temperature;BMP_pressure;BME280_temperature;BME280_humidity;BME280_pressure;Samples;Min_cycle;Max_cycle;Signal;HPM_P1;HPM_P2
2021/11/30 00:00:23;;;;;;;11.30;8.80;;;4.60;71.20;;;;;;5035791;28;20044;-67
2021/11/30 00:02:49;;;;;;;10.38;7.70;;;4.50;70.70;;;;;;5054140;28;20045;-70
2021/11/30 00:05:15;;;;;;;13.05;7.72;;;4.50;71.40;;;;;;5053776;28;20520;-70
2021/11/30 00:07:40;;;;;;;10.68;8.07;;;4.60;71.10;;;;;;5053230;28;20047;-66
2021/11/30 00:12:34;;;;;;;11.70;7.82;;;4.60;71.00;;;;;;5053350;28;20079;-65
2021/11/30 00:15:00;;;;;;;10.43;7.57;;;4.60;71.10;;;;;;5051748;28;20025;-69
2021/11/30 00:17:26;;;;;;;10.85;7.15;;;4.60;71.40;;;;;;5052873;28;20075;-72
2021/11/30 00:19:52;;;;;;;10.90;7.15;;;4.70;71.30;;;;;;5053592;28;20079;-75
2021/11/30 00:22:21;;;;;;;8.35;6.47;;;4.70;71.10;;;;;;5053314;28;20071;-74
2021/11/30 00:24:48;;;;;;;8.43;6.38;;;4.70;71.20;;;;;;5052534;28;20040;-72
2021/11/30 00:27:15;;;;;;;9.18;6.43;;;4.70;70.90;;;;;;5053199;28;20021;-73
2021/11/30 00:29:40;;;;;;;9.65;7.03;;;4.70;71.20;;;;;;5034984;28;20028;-70
2021/11/30 00:32:08;;;;;;;8.95;6.25;;;4.70;71.00;;;;;;5053411;28;20458;-68
2021/11/30 00:34:33;;;;;;;9.50;6.22;;;4.70;70.90;;;;;;5053068;28;20090;-72
2021/11/30 00:37:00;;;;;;;7.13;5.80;;;4.70;71.10;;;;;;5053263;28;20049;-72
2021/11/30 00:39:26;;;;;;;8.45;6.30;;;4.70;71.50;;;;;;5034650;28;20040;-73
2021/11/30 00:41:55;;;;;;;11.95;6.00;;;4.60;71.60;;;;;;5035260;28;20527;-76
2021/11/30 00:44:24;;;;;;;8.05;6.40;;;4.60;72.00;;;;;;5053089;28;20024;-72
2021/11/30 00:46:54;;;;;;;7.90;6.05;;;4.60;72.30;;;;;;5052855;28;20040;-71
2021/11/30 00:49:20;;;;;;;9.68;6.65;;;4.50;72.50;;;;;;5035262;28;20033;-68
2021/11/30 00:51:50;;;;;;;9.20;6.53;;;4.50;73.40;;;;;;5053143;28;20036;-68
2021/11/30 00:54:17;;;;;;;8.40;6.30;;;4.50;73.30;;;;;;5035628;28;20452;-69
2021/11/30 00:56:45;;;;;;;8.23;6.85;;;4.40;73.80;;;;;;5052227;28;20029;-70
2021/11/30 00:59:11;;;;;;;11.60;6.93;;;4.40;73.80;;;;;;5051930;28;20244;-69
2021/11/30 01:01:39;;;;;;;10.60;6.85;;;4.40;73.80;;;;;;5052179;28;20055;-70
2021/11/30 01:04:06;;;;;;;10.55;6.95;;;4.30;73.50;;;;;;5052594;28;20029;-64
2021/11/30 01:06:51;;;;;;;9.32;7.32;;;4.40;73.00;;;;;;5051949;28;20429;-70
2021/11/30 01:09:16;;;;;;;9.57;6.75;;;4.30;72.90;;;;;;5051395;28;20033;-74
2021/11/30 01:11:42;;;;;;;9.13;6.20;;;4.30;72.60;;;;;;5051037;28;20021;-72
2021/11/30 01:14:09;;;;;;;11.43;6.82;;;4.40;72.40;;;;;;5051174;28;20029;-71
2021/11/30 01:19:20;;;;;;;9.25;6.68;;;4.40;71.80;;;;;;5050580;28;20040;-74
2021/11/30 01:21:46;;;;;;;9.40;6.28;;;4.40;72.90;;;;;;5052097;28;20336;-69
2021/11/30 01:24:12;;;;;;;8.18;6.60;;;4.40;72.00;;;;;;5051926;28;20501;-75
2021/11/30 01:26:38;;;;;;;8.80;6.05;;;4.40;71.80;;;;;;5052297;28;20028;-71
2021/11/30 01:29:05;;;;;;;8.38;6.55;;;4.40;72.10;;;;;;5051824;28;20033;-70
2021/11/30 01:31:31;;;;;;;12.30;6.82;;;4.40;71.90;;;;;;5051755;28;20040;-70
2021/11/30 01:33:57;;;;;;;10.65;7.00;;;4.40;71.80;;;;;;5034005;28;20029;-70
2021/11/30 01:36:23;;;;;;;9.82;6.72;;;4.40;71.70;;;;;;5051932;28;20078;-68
2021/11/30 01:38:49;;;;;;;10.43;6.82;;;4.40;71.90;;;;;;5034090;28;20029;-66
2021/11/30 01:41:15;;;;;;;7.43;6.28;;;4.40;72.40;;;;;;5051536;28;20057;-71
2021/11/30 01:43:43;;;;;;;8.18;6.45;;;4.40;72.50;;;;;;5052126;28;20044;-67
2021/11/30 01:46:13;;;;;;;8.70;6.25;;;4.40;72.10;;;;;;5051870;28;20392;-67
2021/11/30 01:51:25;;;;;;;11.32;6.80;;;4.40;72.90;;;;;;5051549;28;20171;-67
2021/11/30 01:53:52;;;;;;;8.13;6.55;;;4.40;72.70;;;;;;5051728;28;20588;-71
2021/11/30 01:56:19;;;;;;;8.68;6.15;;;4.40;72.70;;;;;;5050992;28;20085;-70
2021/11/30 01:58:46;;;;;;;9.95;7.13;;;4.40;72.70;;;;;;5051977;28;20040;-67
2021/11/30 02:01:12;;;;;;;7.97;6.05;;;4.40;72.90;;;;;;5051879;28;20037;-74
2021/11/30 02:03:40;;;;;;;9.77;6.55;;;4.30;73.00;;;;;;5033670;28;20029;-77
2021/11/30 02:06:07;;;;;;;11.38;6.35;;;4.40;72.60;;;;;;5052241;28;20017;-67
2021/11/30 02:08:32;;;;;;;7.53;5.95;;;4.40;72.70;;;;;;5051023;28;20419;-70
2021/11/30 02:10:58;;;;;;;9.35;6.43;;;4.30;72.70;;;;;;5051596;28;20060;-71
2021/11/30 02:13:25;;;;;;;11.40;6.43;;;4.30;73.00;;;;;;5051428;28;20051;-74
2021/11/30 02:15:54;;;;;;;7.82;6.05;;;4.40;72.70;;;;;;5052232;28;20441;-74
2021/11/30 02:18:23;;;;;;;10.43;6.10;;;4.40;72.90;;;;;;5033510;28;20029;-66
2021/11/30 02:20:55;;;;;;;9.15;6.15;;;4.40;73.20;;;;;;5051958;28;20079;-76
2021/11/30 02:25:58;;;;;;;8.95;6.35;;;4.40;73.40;;;;;;5051984;28;20137;-73
2021/11/30 02:28:24;;;;;;;8.75;5.80;;;4.40;72.90;;;;;;5051211;28;20033;-72
2021/11/30 02:30:50;;;;;;;7.80;5.85;;;4.40;72.80;;;;;;5033878;28;20032;-73
2021/11/30 02:33:16;;;;;;;7.57;5.60;;;4.40;72.70;;;;;;5051841;28;20458;-67
2021/11/30 02:35:41;;;;;;;7.10;5.57;;;4.40;72.20;;;;;;5050932;28;20101;-70
2021/11/30 02:38:09;;;;;;;8.57;6.00;;;4.50;72.30;;;;;;5051715;28;20036;-68
2021/11/30 02:40:35;;;;;;;7.00;5.78;;;4.40;72.00;;;;;;5051049;28;20033;-67
2021/11/30 02:43:02;;;;;;;7.03;5.22;;;4.50;71.80;;;;;;5051594;28;20532;-76
2021/11/30 02:45:28;;;;;;;6.25;5.65;;;4.50;71.70;;;;;;5050685;28;20466;-69
2021/11/30 02:47:54;;;;;;;7.78;5.68;;;4.40;71.90;;;;;;5051222;28;20036;-76
2021/11/30 02:50:21;;;;;;;7.75;5.53;;;4.40;71.90;;;;;;5050861;28;20029;-71
2021/11/30 02:52:46;;;;;;;7.53;5.68;;;4.40;72.30;;;;;;5051193;28;20025;-76
2021/11/30 02:55:12;;;;;;;8.23;5.57;;;4.40;72.50;;;;;;5051183;28;20047;-74
2021/11/30 02:57:38;;;;;;;9.65;6.10;;;4.40;73.20;;;;;;5050934;28;20459;-65
2021/11/30 03:00:06;;;;;;;9.95;5.97;;;4.40;72.80;;;;;;5051130;28;20367;-75
2021/11/30 03:02:52;;;;;;;8.38;5.80;;;4.40;72.80;;;;;;5033142;28;20021;-74
2021/11/30 03:05:17;;;;;;;8.20;5.55;;;4.40;72.90;;;;;;5051465;28;20052;-74
2021/11/30 03:07:43;;;;;;;7.70;5.97;;;4.40;72.80;;;;;;5036589;28;20106;-72
2021/11/30 03:10:12;;;;;;;7.97;6.20;;;4.40;73.00;;;;;;5054681;28;20083;-66
2021/11/30 03:12:38;;;;;;;6.93;5.70;;;4.40;72.80;;;;;;5054303;28;20031;-71
2021/11/30 03:15:26;;;;;;;7.75;6.10;;;4.50;72.50;;;;;;5054512;28;20045;-66
2021/11/30 03:17:53;;;;;;;7.82;5.65;;;4.50;72.40;;;;;;5037030;28;20029;-71
2021/11/30 03:20:19;;;;;;;7.38;5.70;;;4.50;72.40;;;;;;5054486;28;20355;-66
2021/11/30 03:22:46;;;;;;;7.38;6.03;;;4.50;72.30;;;;;;5036315;28;20028;-75
2021/11/30 03:25:14;;;;;;;7.25;6.15;;;4.50;73.40;;;;;;5054656;28;20061;-75
2021/11/30 03:27:40;;;;;;;8.50;6.93;;;4.50;76.20;;;;;;5036101;28;20112;-72
2021/11/30 03:30:08;;;;;;;9.80;6.75;;;4.50;76.40;;;;;;5054219;28;20386;-69
2021/11/30 03:35:18;;;;;;;12.35;6.78;;;4.40;77.30;;;;;;5054492;28;20055;-71
2021/11/30 03:37:44;;;;;;;7.80;6.60;;;4.30;76.20;;;;;;5036011;28;20029;-73
2021/11/30 03:40:11;;;;;;;9.02;6.38;;;4.30;76.10;;;;;;5054137;28;20032;-77
2021/11/30 03:42:38;;;;;;;8.82;6.63;;;4.30;75.70;;;;;;5053884;28;20111;-74
2021/11/30 03:45:06;;;;;;;7.22;6.20;;;4.30;75.50;;;;;;5054374;28;20062;-74
2021/11/30 03:47:32;;;;;;;8.75;6.22;;;4.30;75.00;;;;;;5053724;28;20100;-70
2021/11/30 03:49:58;;;;;;;8.63;6.50;;;4.40;74.60;;;;;;5054563;28;20084;-75
2021/11/30 03:52:24;;;;;;;8.23;6.65;;;4.40;74.30;;;;;;5053710;28;20036;-77
2021/11/30 03:54:50;;;;;;;9.52;6.63;;;4.40;73.90;;;;;;5053871;28;20071;-72
2021/11/30 03:57:15;;;;;;;7.88;6.18;;;4.50;73.90;;;;;;5053981;28;20029;-71
2021/11/30 03:59:41;;;;;;;8.55;6.32;;;4.50;73.70;;;;;;5053246;28;20033;-71
2021/11/30 04:02:07;;;;;;;10.77;6.57;;;4.50;73.40;;;;;;5035811;28;20059;-74
2021/11/30 04:04:41;;;;;;;8.15;6.38;;;4.50;73.40;;;;;;5053560;28;20035;-74
2021/11/30 04:07:07;;;;;;;11.15;6.97;;;4.50;73.30;;;;;;5053926;28;20029;-74
2021/11/30 04:09:32;;;;;;;9.60;6.60;;;4.50;73.00;;;;;;5053344;28;20090;-67
2021/11/30 04:11:58;;;;;;;8.70;6.43;;;4.50;73.00;;;;;;5053594;28;20087;-72
2021/11/30 04:14:25;;;;;;;10.32;6.15;;;4.40;73.20;;;;;;5053821;28;20035;-71
2021/11/30 04:16:50;;;;;;;7.55;6.25;;;4.50;73.10;;;;;;5053651;28;20036;-69
2021/11/30 04:19:16;;;;;;;9.75;7.15;;;4.50;73.00;;;;;;5053091;28;20033;-70
2021/11/30 04:21:42;;;;;;;10.68;6.75;;;4.50;73.00;;;;;;5035052;28;20032;-70
2021/11/30 04:24:08;;;;;;;9.15;6.90;;;4.40;72.90;;;;;;5053290;28;20025;-69
2021/11/30 04:26:34;;;;;;;9.85;6.65;;;4.40;73.00;;;;;;5052628;28;20032;-69
2021/11/30 04:29:00;;;;;;;8.98;7.18;;;4.40;73.10;;;;;;5053088;28;20035;-74
2021/11/30 04:31:27;;;;;;;8.73;6.90;;;4.40;72.80;;;;;;5053696;28;20029;-65
2021/11/30 04:33:53;;;;;;;9.05;7.18;;;4.40;72.90;;;;;;5052921;28;20032;-68
2021/11/30 04:36:19;;;;;;;10.13;6.88;;;4.40;72.90;;;;;;5035216;28;20064;-70
2021/11/30 04:38:45;;;;;;;11.13;7.93;;;4.40;72.50;;;;;;5052717;28;20025;-71
2021/11/30 04:41:11;;;;;;;8.80;7.28;;;4.40;72.20;;;;;;5052746;28;20032;-75
2021/11/30 04:43:37;;;;;;;8.07;6.50;;;4.40;72.00;;;;;;5052431;28;20079;-66
2021/11/30 04:46:18;;;;;;;9.25;6.97;;;4.40;72.00;;;;;;5052736;28;20363;-65
2021/11/30 04:48:54;;;;;;;9.73;7.07;;;4.40;71.90;;;;;;5052624;28;20121;-69
2021/11/30 04:51:20;;;;;;;9.27;7.13;;;4.40;71.40;;;;;;5053146;28;20079;-70
2021/11/30 04:53:46;;;;;;;11.65;7.25;;;4.50;71.00;;;;;;5052401;28;20370;-71
2021/11/30 04:56:16;;;;;;;9.25;7.25;;;4.50;70.90;;;;;;5053213;28;20057;-69
2021/11/30 04:58:43;;;;;;;9.93;7.47;;;4.40;70.70;;;;;;5052201;28;20021;-65
2021/11/30 05:01:09;;;;;;;8.63;6.68;;;4.40;70.70;;;;;;5052571;28;20044;-69
2021/11/30 05:03:35;;;;;;;9.65;7.18;;;4.40;70.90;;;;;;5034343;28;20033;-70
2021/11/30 05:06:01;;;;;;;8.75;7.35;;;4.40;70.90;;;;;;5052847;28;20025;-67
2021/11/30 05:08:29;;;;;;;10.50;7.53;;;4.40;71.10;;;;;;5052630;28;20032;-75
2021/11/30 05:10:55;;;;;;;8.60;7.05;;;4.40;70.90;;;;;;5034931;28;20432;-71
2021/11/30 05:13:20;;;;;;;9.60;7.25;;;4.40;70.60;;;;;;5034679;28;20043;-71
2021/11/30 05:15:46;;;;;;;10.60;8.05;;;4.50;70.50;;;;;;5051983;28;20426;-74
2021/11/30 05:18:12;;;;;;;10.18;7.53;;;4.40;70.90;;;;;;5052730;28;20393;-69
2021/11/30 05:20:38;;;;;;;9.85;7.60;;;4.40;70.70;;;;;;5051853;28;20458;-69
2021/11/30 05:23:04;;;;;;;8.80;7.57;;;4.40;70.70;;;;;;5052379;28;20421;-65
2021/11/30 05:25:34;;;;;;;10.73;7.60;;;4.40;71.20;;;;;;5058462;28;20351;-64
2021/11/30 05:28:05;;;;;;;11.80;8.60;;;4.50;70.90;;;;;;5072431;28;20058;-67
2021/11/30 05:30:38;;;;;;;9.93;7.88;;;4.50;70.70;;;;;;5071085;28;20363;-78
2021/11/30 05:33:10;;;;;;;11.25;8.23;;;4.50;70.70;;;;;;5070985;28;20036;-67
2021/11/30 05:35:36;;;;;;;11.30;8.55;;;4.60;70.60;;;;;;5071328;28;20036;-72
2021/11/30 05:38:02;;;;;;;10.73;8.75;;;4.60;70.40;;;;;;5071962;28;20389;-71
2021/11/30 05:40:28;;;;;;;10.80;8.07;;;4.60;70.30;;;;;;5070850;28;20098;-72
2021/11/30 05:42:55;;;;;;;11.48;8.07;;;4.60;70.50;;;;;;5071660;28;20466;-74
2021/11/30 05:45:20;;;;;;;8.75;7.05;;;4.60;70.00;;;;;;5072046;28;20413;-74
2021/11/30 05:47:46;;;;;;;10.93;7.80;;;4.60;70.60;;;;;;5071170;28;20032;-71
2021/11/30 05:50:12;;;;;;;11.05;8.23;;;4.60;70.00;;;;;;5070867;28;20095;-73
2021/11/30 05:52:39;;;;;;;10.52;8.18;;;4.60;69.80;;;;;;5071356;28;20146;-69
2021/11/30 05:55:05;;;;;;;9.65;7.70;;;4.60;70.40;;;;;;5072100;28;20107;-64
2021/11/30 05:57:32;;;;;;;9.18;6.95;;;4.60;69.70;;;;;;5071796;28;20028;-71
2021/11/30 06:00:01;;;;;;;10.48;7.40;;;4.60;69.60;;;;;;5071988;28;20115;-66
2021/11/30 06:02:30;;;;;;;9.57;7.20;;;4.70;69.60;;;;;;5070698;28;20028;-70
2021/11/30 06:04:56;;;;;;;11.80;7.45;;;4.70;69.30;;;;;;5071412;28;20036;-68
2021/11/30 06:07:22;;;;;;;9.32;7.43;;;4.80;69.30;;;;;;5071483;28;20385;-65
2021/11/30 06:09:48;;;;;;;9.55;7.43;;;4.90;69.00;;;;;;5071059;28;20028;-65
2021/11/30 06:12:13;;;;;;;12.00;7.70;;;4.90;68.70;;;;;;5070731;28;20028;-64
2021/11/30 06:14:39;;;;;;;10.30;7.22;;;5.00;68.70;;;;;;5071159;28;20032;-67
2021/11/30 06:17:06;;;;;;;10.63;7.78;;;5.00;68.70;;;;;;5070296;28;20025;-70
2021/11/30 06:19:34;;;;;;;10.68;7.35;;;5.10;68.70;;;;;;5071726;28;20032;-64
2021/11/30 06:22:01;;;;;;;12.40;8.05;;;5.00;68.60;;;;;;5070390;28;20025;-64
2021/11/30 06:24:26;;;;;;;10.50;8.02;;;5.00;68.90;;;;;;5066387;28;20102;-65
2021/11/30 06:26:52;;;;;;;14.60;7.22;;;5.00;68.90;;;;;;5032927;28;20462;-63
2021/11/30 06:29:18;;;;;;;11.27;6.97;;;4.90;69.40;;;;;;5033596;28;20079;-64
2021/11/30 06:31:45;;;;;;;10.55;7.50;;;4.90;69.80;;;;;;5050863;28;20021;-66
2021/11/30 06:34:11;;;;;;;9.88;7.35;;;5.00;69.90;;;;;;5051207;28;20029;-74
2021/11/30 06:36:37;;;;;;;8.43;6.82;;;5.00;70.70;;;;;;5050889;28;20068;-69
2021/11/30 06:39:04;;;;;;;8.05;6.20;;;5.00;70.50;;;;;;5051209;28;20173;-61
2021/11/30 06:41:30;;;;;;;9.00;7.15;;;5.10;70.50;;;;;;5053200;28;20025;-65
2021/11/30 06:43:55;;;;;;;8.50;6.75;;;5.10;70.30;;;;;;5054786;28;20203;-74
2021/11/30 06:46:21;;;;;;;13.75;7.22;;;5.10;70.10;;;;;;5055258;28;20032;-70
2021/11/30 06:48:47;;;;;;;7.50;6.50;;;5.10;70.10;;;;;;5054327;28;20021;-63
2021/11/30 06:51:15;;;;;;;10.85;7.40;;;5.20;70.10;;;;;;5054952;28;20108;-69
2021/11/30 06:53:41;;;;;;;9.70;6.65;;;5.20;69.80;;;;;;5036504;28;20029;-62
2021/11/30 06:56:07;;;;;;;9.88;6.00;;;5.30;69.70;;;;;;5054277;28;20351;-68
2021/11/30 06:58:32;;;;;;;10.63;6.82;;;5.30;69.40;;;;;;5054777;28;20434;-67
2021/11/30 07:00:58;;;;;;;10.05;6.65;;;5.30;69.40;;;;;;5054081;28;20029;-72
2021/11/30 07:03:24;;;;;;;8.65;6.32;;;5.30;69.70;;;;;;5054932;28;20040;-67
2021/11/30 07:05:59;;;;;;;11.52;6.40;;;5.30;69.00;;;;;;5053899;28;20071;-64
2021/11/30 07:14:05;;;;;;;9.20;6.60;;;5.30;69.40;;;;;;5054553;28;20032;-65
2021/11/30 07:16:32;;;;;;;9.90;6.35;;;5.20;69.60;;;;;;5036382;28;20109;-70
2021/11/30 07:18:58;;;;;;;14.52;5.72;;;5.20;69.60;;;;;;5053605;28;20428;-68
2021/11/30 07:21:26;;;;;;;9.35;6.07;;;5.30;69.80;;;;;;5054011;28;20033;-65
2021/11/30 07:23:52;;;;;;;7.68;5.53;;;5.20;69.40;;;;;;5035708;28;20025;-66
2021/11/30 07:26:18;;;;;;;12.32;11.23;;;5.30;69.50;;;;;;5054304;28;20025;-66
2021/11/30 07:28:44;;;;;;;6.88;5.47;;;5.80;69.80;;;;;;5053531;28;20029;-64
2021/11/30 07:31:11;;;;;;;14.93;9.82;;;6.70;65.60;;;;;;5036357;28;20032;-72
2021/11/30 07:33:45;;;;;;;13.80;10.20;;;6.60;64.60;;;;;;5053661;28;20037;-70
2021/11/30 07:36:13;;;;;;;12.48;4.40;;;6.70;64.30;;;;;;5054138;28;20029;-68
2021/11/30 07:38:41;;;;;;;16.05;5.70;;;6.70;63.90;;;;;;5054138;28;20132;-67
2021/11/30 07:41:09;;;;;;;10.73;5.07;;;6.60;64.40;;;;;;5053945;28;20025;-68
2021/11/30 07:43:35;;;;;;;9.75;5.03;;;6.50;65.10;;;;;;5035558;28;20029;-64
2021/11/30 07:46:01;;;;;;;13.15;5.50;;;6.50;65.00;;;;;;5034513;28;20386;-69
2021/11/30 07:48:28;;;;;;;40.92;22.75;;;6.40;64.90;;;;;;5054431;28;20123;-65
2021/11/30 07:50:56;;;;;;;6.43;3.97;;;6.40;65.00;;;;;;5054002;28;20116;-67
2021/11/30 07:53:22;;;;;;;11.30;4.78;;;6.30;64.90;;;;;;5034251;28;20032;-61
2021/11/30 07:55:49;;;;;;;9.38;4.45;;;6.30;65.40;;;;;;5035073;28;20116;-62
2021/11/30 07:58:15;;;;;;;5.72;4.00;;;6.30;65.60;;;;;;5053151;28;20025;-63
2021/11/30 08:00:41;;;;;;;6.68;3.78;;;6.20;65.90;;;;;;5052632;28;20039;-67
2021/11/30 08:03:07;;;;;;;6.75;3.90;;;6.20;65.30;;;;;;5053028;28;20028;-70
2021/11/30 08:05:34;;;;;;;9.60;4.10;;;6.30;65.20;;;;;;5053055;28;20442;-65
2021/11/30 08:07:59;;;;;;;8.32;3.95;;;6.20;65.80;;;;;;5051731;28;20525;-64
2021/11/30 08:10:28;;;;;;;9.38;3.55;;;6.20;65.90;;;;;;5035093;28;20068;-77
2021/11/30 08:12:54;;;;;;;6.85;4.00;;;6.20;65.60;;;;;;5052288;28;20020;-68
2021/11/30 08:15:20;;;;;;;12.32;3.70;;;6.20;65.50;;;;;;5053302;28;20518;-68
2021/11/30 08:17:46;;;;;;;3.47;2.92;;;6.20;65.50;;;;;;5051232;28;20389;-72
2021/11/30 08:20:12;;;;;;;8.70;3.03;;;6.20;65.90;;;;;;5051755;28;20115;-70
2021/11/30 08:22:40;;;;;;;3.80;2.83;;;6.30;66.90;;;;;;5035114;28;20472;-69
2021/11/30 08:25:06;;;;;;;3.25;2.53;;;6.40;65.20;;;;;;5052105;28;20410;-75
2021/11/30 08:27:32;;;;;;;3.78;2.50;;;6.40;65.20;;;;;;5071329;28;20039;-69
2021/11/30 08:29:59;;;;;;;4.30;2.83;;;6.50;65.10;;;;;;5070850;28;20024;-74
2021/11/30 08:32:25;;;;;;;5.07;2.78;;;6.60;64.50;;;;;;5072495;28;20127;-66
2021/11/30 08:34:54;;;;;;;12.65;2.90;;;6.70;64.40;;;;;;5072330;28;20025;-72
2021/11/30 08:37:38;;;;;;;10.57;2.53;;;6.80;64.50;;;;;;5066083;28;20016;-70
2021/11/30 08:40:10;;;;;;;7.47;2.65;;;6.90;65.00;;;;;;5070485;28;20294;-66
2021/11/30 08:42:36;;;;;;;6.15;2.75;;;6.90;65.20;;;;;;5071376;28;20029;-66
2021/11/30 08:45:03;;;;;;;6.88;3.25;;;6.80;63.90;;;;;;5071932;28;20025;-70
2021/11/30 08:47:29;;;;;;;8.88;2.40;;;6.80;64.10;;;;;;5072759;28;20033;-73
2021/11/30 08:49:55;;;;;;;16.15;3.22;;;6.60;65.00;;;;;;5070708;28;20035;-72
2021/11/30 08:52:27;;;;;;;6.85;2.85;;;6.60;64.50;;;;;;5071528;28;20025;-63
2021/11/30 08:54:54;;;;;;;5.28;2.90;;;6.70;64.30;;;;;;5070991;28;20034;-62
2021/11/30 08:57:21;;;;;;;5.38;2.17;;;7.00;63.70;;;;;;5071930;28;20028;-71
2021/11/30 08:59:47;;;;;;;4.57;2.40;;;7.00;63.00;;;;;;5071641;28;20028;-65
2021/11/30 09:02:14;;;;;;;4.45;2.40;;;7.00;63.30;;;;;;5071163;28;20051;-65
2021/11/30 09:04:40;;;;;;;5.30;2.40;;;6.90;63.70;;;;;;5072060;28;20029;-64
2021/11/30 09:07:06;;;;;;;4.95;2.42;;;6.90;63.00;;;;;;5071421;28;20201;-72
2021/11/30 09:09:32;;;;;;;3.10;1.90;;;7.00;62.90;;;;;;5072206;28;20028;-75
2021/11/30 09:11:58;;;;;;;6.80;2.05;;;7.00;62.80;;;;;;5071708;28;20031;-74
2021/11/30 09:14:25;;;;;;;5.00;2.20;;;7.00;62.80;;;;;;5071049;28;20089;-77
2021/11/30 09:16:53;;;;;;;6.53;2.05;;;7.10;62.60;;;;;;5070672;28;20024;-68
2021/11/30 09:19:20;;;;;;;3.35;2.10;;;7.10;61.80;;;;;;5071617;28;20031;-69
2021/11/30 09:21:46;;;;;;;7.78;1.95;;;7.20;62.20;;;;;;5072192;28;20024;-73
2021/11/30 09:24:12;;;;;;;4.38;1.80;;;7.40;61.60;;;;;;5067537;28;20052;-66
2021/11/30 09:26:38;;;;;;;5.47;2.08;;;7.40;61.00;;;;;;5052566;28;20442;-67
2021/11/30 09:29:05;;;;;;;7.88;2.55;;;7.30;61.30;;;;;;5051862;28;20033;-71
2021/11/30 09:31:31;;;;;;;8.00;2.35;;;7.40;61.50;;;;;;5052027;28;20048;-67
2021/11/30 09:34:01;;;;;;;10.55;2.47;;;7.40;61.00;;;;;;5050847;28;20434;-69
2021/11/30 09:36:27;;;;;;;4.60;2.10;;;7.40;60.90;;;;;;5033146;28;20025;-74
2021/11/30 09:38:53;;;;;;;12.55;3.55;;;7.30;60.20;;;;;;5050553;28;20112;-73
2021/11/30 09:41:19;;;;;;;7.88;2.78;;;7.30;60.10;;;;;;5033394;28;20035;-68
2021/11/30 09:43:45;;;;;;;8.23;2.40;;;7.20;60.80;;;;;;5033534;28;20462;-65
2021/11/30 09:46:11;;;;;;;9.40;2.70;;;7.20;60.80;;;;;;5051030;28;20370;-72
2021/11/30 09:48:37;;;;;;;7.20;2.25;;;7.20;60.50;;;;;;5051126;28;20032;-71
2021/11/30 09:51:05;;;;;;;12.52;3.00;;;7.30;59.80;;;;;;5033265;28;20059;-69
2021/11/30 09:53:31;;;;;;;12.20;3.15;;;7.40;59.50;;;;;;5051579;28;20025;-76
2021/11/30 09:55:58;;;;;;;14.20;3.40;;;7.50;58.20;;;;;;5050752;28;20025;-69
2021/11/30 09:58:25;;;;;;;10.85;2.50;;;7.50;58.70;;;;;;5051424;28;20070;-66
2021/11/30 10:00:53;;;;;;;22.13;3.78;;;7.50;58.30;;;;;;5033154;28;20025;-72
2021/11/30 10:03:21;;;;;;;13.82;3.20;;;7.60;57.30;;;;;;5051339;28;20040;-67
2021/11/30 10:05:47;;;;;;;10.63;2.42;;;7.70;57.30;;;;;;5050421;28;20461;-69
2021/11/30 10:08:26;;;;;;;10.55;2.20;;;7.70;57.50;;;;;;5049600;28;20111;-67
2021/11/30 10:10:52;;;;;;;4.88;2.10;;;7.70;56.40;;;;;;5049522;28;20033;-65
2021/11/30 10:13:37;;;;;;;7.57;2.58;;;7.80;56.00;;;;;;5051204;28;20055;-63
2021/11/30 10:16:05;;;;;;;8.73;2.72;;;7.80;55.50;;;;;;5030346;28;20036;-67
2021/11/30 10:18:40;;;;;;;6.00;2.20;;;7.70;55.30;;;;;;5054451;28;20053;-70
2021/11/30 10:21:09;;;;;;;12.80;2.92;;;7.60;55.50;;;;;;5034983;28;20032;-71
2021/11/30 10:23:56;;;;;;;7.50;2.42;;;7.60;55.40;;;;;;5054577;28;20079;-72
2021/11/30 10:26:32;;;;;;;10.40;3.08;;;7.80;55.00;;;;;;5054664;28;20059;-62
2021/11/30 10:29:05;;;;;;;9.15;2.50;;;7.90;54.70;;;;;;5054174;28;20045;-71
2021/11/30 10:31:46;;;;;;;8.07;2.90;;;7.80;54.70;;;;;;5054193;28;20155;-68
2021/11/30 10:34:30;;;;;;;6.03;2.22;;;7.70;55.60;;;;;;5035854;28;20101;-70
2021/11/30 10:37:06;;;;;;;6.90;2.88;;;7.60;55.20;;;;;;5054020;28;20021;-72
2021/11/30 10:39:35;;;;;;;7.55;2.85;;;7.60;55.60;;;;;;5021391;28;20029;-72
2021/11/30 10:42:23;;;;;;;5.38;2.40;;;7.50;55.70;;;;;;5036111;28;20545;-66
2021/11/30 10:44:52;;;;;;;11.55;2.42;;;7.50;55.60;;;;;;5036019;28;20051;-64
2021/11/30 10:47:24;;;;;;;9.18;2.88;;;7.50;56.70;;;;;;5035834;28;20545;-70
2021/11/30 10:50:05;;;;;;;11.75;2.63;;;7.60;56.20;;;;;;5036799;28;20123;-68
2021/11/30 10:52:33;;;;;;;5.00;2.20;;;7.60;55.70;;;;;;5035944;28;20021;-70
2021/11/30 10:55:05;;;;;;;8.60;2.90;;;7.50;55.40;;;;;;5053482;28;20478;-71
2021/11/30 10:57:32;;;;;;;5.93;2.58;;;7.40;55.70;;;;;;5036444;28;20036;-70
2021/11/30 11:00:24;;;;;;;11.35;2.30;;;7.40;55.90;;;;;;5053599;28;20025;-69
2021/11/30 11:05:34;;;;;;;4.25;2.28;;;7.50;55.80;;;;;;5054176;28;20025;-64
2021/11/30 11:08:17;;;;;;;6.03;2.58;;;7.60;55.60;;;;;;5035508;28;20155;-70
2021/11/30 11:10:59;;;;;;;3.88;1.70;;;7.50;55.50;;;;;;5054177;28;20535;-65
2021/11/30 11:13:27;;;;;;;4.05;1.65;;;7.50;54.70;;;;;;5053917;28;20035;-66
2021/11/30 11:15:56;;;;;;;16.42;1.63;;;7.40;55.40;;;;;;5053426;28;20029;-73
2021/11/30 11:18:33;;;;;;;6.28;1.55;;;7.30;56.70;;;;;;5053960;28;20025;-72
2021/11/30 11:21:19;;;;;;;6.78;2.13;;;7.30;55.30;;;;;;5053176;28;20454;-65
2021/11/30 11:24:25;;;;;;;3.38;1.35;;;7.20;55.00;;;;;;5053580;28;20025;-67
2021/11/30 11:26:56;;;;;;;9.63;3.10;;;7.20;54.90;;;;;;4956267;28;20042;-64
2021/11/30 11:29:43;;;;;;;6.68;2.53;;;7.20;55.30;;;;;;5041822;28;20119;-67
2021/11/30 11:32:10;;;;;;;3.90;1.52;;;7.30;55.10;;;;;;5035103;28;20171;-69
2021/11/30 11:34:38;;;;;;;3.92;1.65;;;7.40;54.80;;;;;;5053761;28;20029;-68
2021/11/30 11:37:10;;;;;;;5.57;1.90;;;7.40;54.20;;;;;;5034799;28;20025;-73
2021/11/30 11:39:36;;;;;;;2.95;1.30;;;7.40;54.30;;;;;;5053647;28;20028;-68
2021/11/30 11:42:05;;;;;;;3.72;1.45;;;7.40;54.40;;;;;;5034039;28;20037;-73
2021/11/30 11:44:31;;;;;;;4.15;1.65;;;7.50;53.70;;;;;;5052019;28;20028;-68
2021/11/30 11:47:07;;;;;;;5.18;1.50;;;7.50;53.70;;;;;;5034905;28;20029;-70
2021/11/30 11:49:38;;;;;;;6.80;1.88;;;7.50;53.60;;;;;;5035257;28;20504;-69
2021/11/30 11:52:05;;;;;;;3.05;1.10;;;7.40;54.50;;;;;;5034792;28;20477;-73
2021/11/30 11:54:33;;;;;;;10.77;1.63;;;7.30;53.60;;;;;;5052977;28;20071;-70
2021/11/30 11:57:01;;;;;;;5.93;1.30;;;7.30;53.60;;;;;;5035168;28;20037;-72
2021/11/30 11:59:35;;;;;;;3.72;1.05;;;7.40;54.00;;;;;;5052503;28;20039;-67
2021/11/30 12:02:21;;;;;;;5.97;1.30;;;7.30;53.70;;;;;;5033972;28;20104;-69
2021/11/30 12:05:07;;;;;;;2.72;1.30;;;7.20;54.30;;;;;;5052553;28;20060;-70
2021/11/30 12:07:52;;;;;;;6.93;1.52;;;7.20;54.30;;;;;;5034600;28;20029;-69
2021/11/30 12:10:22;;;;;;;5.40;1.50;;;7.20;54.70;;;;;;5052141;28;20025;-65
2021/11/30 12:12:59;;;;;;;7.38;2.60;;;7.10;55.10;;;;;;5052418;28;20025;-67
2021/11/30 12:15:47;;;;;;;4.15;1.40;;;7.20;55.10;;;;;;5052337;28;20103;-71
2021/11/30 12:18:24;;;;;;;3.10;1.20;;;7.10;55.20;;;;;;5037523;28;20334;-67
2021/11/30 12:20:50;;;;;;;7.22;1.60;;;7.10;56.00;;;;;;5035053;28;20029;-69
2021/11/30 12:23:35;;;;;;;12.68;4.40;;;7.10;55.90;;;;;;5034245;28;20035;-74
2021/11/30 12:26:01;;;;;;;2.75;1.23;;;7.00;55.60;;;;;;5051733;28;20045;-71
2021/11/30 12:28:33;;;;;;;22.80;6.82;;;7.00;56.50;;;;;;5053030;28;20108;-69
2021/11/30 12:31:00;;;;;;;5.70;2.30;;;7.00;56.00;;;;;;5034252;28;20033;-64
2021/11/30 12:33:52;;;;;;;5.50;2.95;;;7.00;56.30;;;;;;5034668;28;20029;-65
2021/11/30 12:36:28;;;;;;;6.05;3.00;;;6.90;56.60;;;;;;5052564;28;20135;-68
2021/11/30 12:39:02;;;;;;;8.13;4.28;;;7.00;56.70;;;;;;5051926;28;20033;-68
2021/11/30 12:41:36;;;;;;;6.95;2.45;;;7.10;57.00;;;;;;5052341;28;20108;-72
2021/11/30 12:44:08;;;;;;;8.85;3.17;;;7.20;57.00;;;;;;5034190;28;20033;-68
2021/11/30 12:46:43;;;;;;;16.38;4.50;;;7.30;56.90;;;;;;5052458;28;20036;-68
2021/11/30 12:49:24;;;;;;;7.70;1.80;;;7.40;56.90;;;;;;5034164;28;20425;-68
2021/11/30 12:52:16;;;;;;;8.65;3.33;;;7.40;56.80;;;;;;5052082;28;20108;-68
2021/11/30 12:54:48;;;;;;;14.57;4.70;;;7.40;56.80;;;;;;5052199;28;20025;-75
2021/11/30 12:57:29;;;;;;;15.40;5.72;;;7.30;57.10;;;;;;5051669;28;20358;-65
2021/11/30 13:00:13;;;;;;;5.22;2.58;;;7.40;57.40;;;;;;5051496;28;20028;-69
2021/11/30 13:02:41;;;;;;;13.13;4.95;;;7.40;57.20;;;;;;5051797;28;20036;-74
2021/11/30 13:05:11;;;;;;;3.40;1.65;;;7.40;57.40;;;;;;5033471;28;20025;-67
2021/11/30 13:07:49;;;;;;;5.32;1.42;;;7.40;57.40;;;;;;5033244;28;20021;-75
2021/11/30 13:10:42;;;;;;;3.30;1.30;;;7.30;57.70;;;;;;5051425;28;20029;-70
2021/11/30 13:13:18;;;;;;;3.55;2.10;;;7.30;58.30;;;;;;5051148;28;20098;-74
2021/11/30 13:15:49;;;;;;;5.80;1.80;;;7.20;58.30;;;;;;5051698;28;20094;-72
2021/11/30 13:18:15;;;;;;;4.18;1.38;;;7.20;59.10;;;;;;5051229;28;20025;-70
2021/11/30 13:20:42;;;;;;;4.85;1.48;;;7.10;59.10;;;;;;5051320;28;20039;-64
2021/11/30 13:23:09;;;;;;;5.95;1.55;;;7.10;59.60;;;;;;5050946;28;20025;-69